sensor_id;sensor_type;location;lat;lon;timestamp;temperature;humidity
34646;DHT22;20857;47.808;12.482;2022-10-17T00:01:43;13.00;99.90
34646;DHT22;20857;47.808;12.482;2022-10-17T00:04:08;13.00;99.90
34646;DHT22;20857;47.808;12.482;2022-10-17T00:06:34;13.20;99.90
34646;DHT22;20857;47.808;12.482;2022-10-17T00:09:00;13.30;99.90
34646;DHT22;20857;47.808;12.482;2022-10-17T00:11:26;13.30;99.90
34646;DHT22;20857;47.808;12.482;2022-10-17T00:13:54;13.10;99.90
34646;DHT22;20857;47.808;12.482;2022-10-17T00:16:29;13.00;99.90
34646;DHT22;20857;47.808;12.482;2022-10-17T00:18:55;13.00;99.90
34646;DHT22;20857;47.808;12.482;2022-10-17T00:21:23;12.90;99.90
34646;DHT22;20857;47.808;12.482;2022-10-17T00:23:48;12.80;99.90
34646;DHT22;20857;47.808;12.482;2022-10-17T00:26:15;12.70;99.90
34646;DHT22;20857;47.808;12.482;2022-10-17T00:28:41;12.70;99.90
34646;DHT22;20857;47.808;12.482;2022-10-17T00:31:07;12.50;99.90
34646;DHT22;20857;47.808;12.482;2022-10-17T00:33:33;12.40;99.90
34646;DHT22;20857;47.808;12.482;2022-10-17T00:36:17;12.30;99.90
34646;DHT22;20857;47.808;12.482;2022-10-17T00:38:45;12.20;99.90
34646;DHT22;20857;47.808;12.482;2022-10-17T00:41:13;12.10;99.90
34646;DHT22;20857;47.808;12.482;2022-10-17T00:46:26;12.10;99.90
34646;DHT22;20857;47.808;12.482;2022-10-17T00:48:53;12.20;99.90
34646;DHT22;20857;47.808;12.482;2022-10-17T00:51:24;12.20;99.90
34646;DHT22;20857;47.808;12.482;2022-10-17T00:53:50;12.20;99.90
34646;DHT22;20857;47.808;12.482;2022-10-17T00:56:18;12.20;99.90
34646;DHT22;20857;47.808;12.482;2022-10-17T00:58:45;12.20;99.90
34646;DHT22;20857;47.808;12.482;2022-10-17T01:01:10;12.20;99.90
34646;DHT22;20857;47.808;12.482;2022-10-17T01:03:36;12.10;99.90
34646;DHT22;20857;47.808;12.482;2022-10-17T01:06:01;12.10;99.90
34646;DHT22;20857;47.808;12.482;2022-10-17T01:08:27;12.10;99.90
34646;DHT22;20857;47.808;12.482;2022-10-17T01:11:10;12.10;99.90
34646;DHT22;20857;47.808;12.482;2022-10-17T01:13:44;12.10;99.90
34646;DHT22;20857;47.808;12.482;2022-10-17T01:16:18;12.10;99.90
34646;DHT22;20857;47.808;12.482;2022-10-17T01:21:57;12.50;99.90
34646;DHT22;20857;47.808;12.482;2022-10-17T01:35:12;12.70;99.90
34646;DHT22;20857;47.808;12.482;2022-10-17T01:37:50;12.70;99.90
34646;DHT22;20857;47.808;12.482;2022-10-17T01:40:36;13.00;99.90
34646;DHT22;20857;47.808;12.482;2022-10-17T01:45:47;13.10;99.90
34646;DHT22;20857;47.808;12.482;2022-10-17T01:48:17;13.10;99.90
34646;DHT22;20857;47.808;12.482;2022-10-17T01:50:50;13.20;99.90
34646;DHT22;20857;47.808;12.482;2022-10-17T01:53:30;13.10;99.90
34646;DHT22;20857;47.808;12.482;2022-10-17T01:56:00;13.20;99.90
34646;DHT22;20857;47.808;12.482;2022-10-17T01:58:37;13.20;99.90
34646;DHT22;20857;47.808;12.482;2022-10-17T02:01:06;13.30;99.90
34646;DHT22;20857;47.808;12.482;2022-10-17T02:03:33;13.20;99.90
34646;DHT22;20857;47.808;12.482;2022-10-17T02:05:59;13.20;99.90
34646;DHT22;20857;47.808;12.482;2022-10-17T02:08:28;13.10;99.90
34646;DHT22;20857;47.808;12.482;2022-10-17T02:11:00;13.10;99.90
34646;DHT22;20857;47.808;12.482;2022-10-17T02:13:49;13.10;99.90
34646;DHT22;20857;47.808;12.482;2022-10-17T02:24:31;12.80;99.90
34646;DHT22;20857;47.808;12.482;2022-10-17T02:27:16;12.50;99.90
34646;DHT22;20857;47.808;12.482;2022-10-17T02:29:52;12.40;99.90
34646;DHT22;20857;47.808;12.482;2022-10-17T02:34:57;12.00;99.90
34646;DHT22;20857;47.808;12.482;2022-10-17T02:37:27;11.90;99.90
34646;DHT22;20857;47.808;12.482;2022-10-17T02:39:56;11.80;99.90
34646;DHT22;20857;47.808;12.482;2022-10-17T02:42:23;11.80;99.90
34646;DHT22;20857;47.808;12.482;2022-10-17T02:44:50;11.80;99.90
34646;DHT22;20857;47.808;12.482;2022-10-17T02:47:18;11.70;99.90
34646;DHT22;20857;47.808;12.482;2022-10-17T02:49:55;11.60;99.90
34646;DHT22;20857;47.808;12.482;2022-10-17T02:52:32;11.70;99.90
34646;DHT22;20857;47.808;12.482;2022-10-17T02:55:08;11.90;99.90
34646;DHT22;20857;47.808;12.482;2022-10-17T02:57:39;11.80;99.90
34646;DHT22;20857;47.808;12.482;2022-10-17T03:00:09;11.60;99.90
34646;DHT22;20857;47.808;12.482;2022-10-17T03:05:10;11.50;99.90
34646;DHT22;20857;47.808;12.482;2022-10-17T03:07:36;11.70;99.90
34646;DHT22;20857;47.808;12.482;2022-10-17T03:10:02;11.80;99.90
34646;DHT22;20857;47.808;12.482;2022-10-17T03:12:28;11.90;99.90
34646;DHT22;20857;47.808;12.482;2022-10-17T03:14:53;12.00;99.90
34646;DHT22;20857;47.808;12.482;2022-10-17T03:17:19;12.00;99.90
34646;DHT22;20857;47.808;12.482;2022-10-17T03:19:44;12.00;99.90
34646;DHT22;20857;47.808;12.482;2022-10-17T03:22:10;11.90;99.90
34646;DHT22;20857;47.808;12.482;2022-10-17T03:24:44;12.00;99.90
34646;DHT22;20857;47.808;12.482;2022-10-17T03:27:10;12.00;99.90
34646;DHT22;20857;47.808;12.482;2022-10-17T03:29:36;12.20;99.90
34646;DHT22;20857;47.808;12.482;2022-10-17T03:32:04;12.20;99.90
34646;DHT22;20857;47.808;12.482;2022-10-17T03:34:29;12.20;99.90
34646;DHT22;20857;47.808;12.482;2022-10-17T03:36:55;12.10;99.90
34646;DHT22;20857;47.808;12.482;2022-10-17T03:39:21;12.00;99.90
34646;DHT22;20857;47.808;12.482;2022-10-17T03:41:46;11.90;99.90
34646;DHT22;20857;47.808;12.482;2022-10-17T03:44:12;11.90;99.90
34646;DHT22;20857;47.808;12.482;2022-10-17T03:46:37;11.80;99.90
34646;DHT22;20857;47.808;12.482;2022-10-17T03:49:03;11.70;99.90
34646;DHT22;20857;47.808;12.482;2022-10-17T03:51:28;11.70;99.90
34646;DHT22;20857;47.808;12.482;2022-10-17T03:53:54;11.70;99.90
34646;DHT22;20857;47.808;12.482;2022-10-17T03:56:24;11.80;99.90
34646;DHT22;20857;47.808;12.482;2022-10-17T03:58:50;12.10;99.90
34646;DHT22;20857;47.808;12.482;2022-10-17T04:01:16;12.20;99.90
34646;DHT22;20857;47.808;12.482;2022-10-17T04:03:42;12.30;99.90
34646;DHT22;20857;47.808;12.482;2022-10-17T04:06:11;12.40;99.90
34646;DHT22;20857;47.808;12.482;2022-10-17T04:08:37;12.50;99.90
34646;DHT22;20857;47.808;12.482;2022-10-17T04:11:05;12.50;99.90
34646;DHT22;20857;47.808;12.482;2022-10-17T04:13:32;12.40;99.90
34646;DHT22;20857;47.808;12.482;2022-10-17T04:16:04;12.40;99.90
34646;DHT22;20857;47.808;12.482;2022-10-17T04:18:30;12.50;99.90
34646;DHT22;20857;47.808;12.482;2022-10-17T04:20:55;12.40;99.90
34646;DHT22;20857;47.808;12.482;2022-10-17T04:23:21;12.20;99.90
34646;DHT22;20857;47.808;12.482;2022-10-17T04:25:47;11.90;99.90
34646;DHT22;20857;47.808;12.482;2022-10-17T04:28:13;11.60;99.90
34646;DHT22;20857;47.808;12.482;2022-10-17T04:30:38;11.50;99.90
34646;DHT22;20857;47.808;12.482;2022-10-17T04:33:04;11.30;99.90
34646;DHT22;20857;47.808;12.482;2022-10-17T04:35:30;11.30;99.90
34646;DHT22;20857;47.808;12.482;2022-10-17T04:37:56;11.40;99.90
34646;DHT22;20857;47.808;12.482;2022-10-17T04:40:22;11.60;99.90
34646;DHT22;20857;47.808;12.482;2022-10-17T04:42:47;11.70;99.90
34646;DHT22;20857;47.808;12.482;2022-10-17T04:45:13;11.90;99.90
34646;DHT22;20857;47.808;12.482;2022-10-17T04:47:38;11.90;99.90
34646;DHT22;20857;47.808;12.482;2022-10-17T04:50:05;11.80;99.90
34646;DHT22;20857;47.808;12.482;2022-10-17T04:52:31;11.60;99.90
34646;DHT22;20857;47.808;12.482;2022-10-17T04:54:56;11.40;99.90
34646;DHT22;20857;47.808;12.482;2022-10-17T04:57:23;11.30;99.90
34646;DHT22;20857;47.808;12.482;2022-10-17T04:59:49;11.20;99.90
34646;DHT22;20857;47.808;12.482;2022-10-17T05:02:15;11.10;99.90
34646;DHT22;20857;47.808;12.482;2022-10-17T05:04:41;11.10;99.90
34646;DHT22;20857;47.808;12.482;2022-10-17T05:07:07;11.30;99.90
34646;DHT22;20857;47.808;12.482;2022-10-17T05:09:32;11.30;99.90
34646;DHT22;20857;47.808;12.482;2022-10-17T05:11:58;11.20;99.90
34646;DHT22;20857;47.808;12.482;2022-10-17T05:14:23;11.30;99.90
34646;DHT22;20857;47.808;12.482;2022-10-17T05:16:49;11.30;99.90
34646;DHT22;20857;47.808;12.482;2022-10-17T05:19:15;11.30;99.90
34646;DHT22;20857;47.808;12.482;2022-10-17T05:21:41;11.10;99.90
34646;DHT22;20857;47.808;12.482;2022-10-17T05:24:08;11.20;99.90
34646;DHT22;20857;47.808;12.482;2022-10-17T05:26:35;11.20;99.90
34646;DHT22;20857;47.808;12.482;2022-10-17T05:29:01;11.20;99.90
34646;DHT22;20857;47.808;12.482;2022-10-17T05:31:28;11.20;99.90
34646;DHT22;20857;47.808;12.482;2022-10-17T05:33:54;11.30;99.90
34646;DHT22;20857;47.808;12.482;2022-10-17T05:36:19;11.30;99.90
34646;DHT22;20857;47.808;12.482;2022-10-17T05:38:51;11.20;99.90
34646;DHT22;20857;47.808;12.482;2022-10-17T05:41:17;11.10;99.90
34646;DHT22;20857;47.808;12.482;2022-10-17T05:43:43;11.00;99.90
34646;DHT22;20857;47.808;12.482;2022-10-17T05:46:09;10.90;99.90
34646;DHT22;20857;47.808;12.482;2022-10-17T05:48:35;10.90;99.90
34646;DHT22;20857;47.808;12.482;2022-10-17T05:51:03;11.00;99.90
34646;DHT22;20857;47.808;12.482;2022-10-17T05:53:30;11.20;99.90
34646;DHT22;20857;47.808;12.482;2022-10-17T05:55:57;11.40;99.90
34646;DHT22;20857;47.808;12.482;2022-10-17T05:58:23;11.60;99.90
34646;DHT22;20857;47.808;12.482;2022-10-17T06:00:49;11.80;99.90
34646;DHT22;20857;47.808;12.482;2022-10-17T06:03:15;12.10;99.90
34646;DHT22;20857;47.808;12.482;2022-10-17T06:05:40;12.30;99.90
34646;DHT22;20857;47.808;12.482;2022-10-17T06:08:06;12.40;99.90
34646;DHT22;20857;47.808;12.482;2022-10-17T06:10:32;12.60;99.90
34646;DHT22;20857;47.808;12.482;2022-10-17T06:12:57;12.70;99.90
34646;DHT22;20857;47.808;12.482;2022-10-17T06:15:23;12.70;99.90
34646;DHT22;20857;47.808;12.482;2022-10-17T06:17:48;12.90;99.90
34646;DHT22;20857;47.808;12.482;2022-10-17T06:20:14;12.90;99.90
34646;DHT22;20857;47.808;12.482;2022-10-17T06:22:40;13.00;99.90
34646;DHT22;20857;47.808;12.482;2022-10-17T06:25:05;13.00;99.90
34646;DHT22;20857;47.808;12.482;2022-10-17T06:27:31;13.00;99.90
34646;DHT22;20857;47.808;12.482;2022-10-17T06:29:57;13.20;99.90
34646;DHT22;20857;47.808;12.482;2022-10-17T06:32:22;13.30;99.90
34646;DHT22;20857;47.808;12.482;2022-10-17T06:34:48;13.40;99.90
34646;DHT22;20857;47.808;12.482;2022-10-17T06:37:13;13.60;99.90
34646;DHT22;20857;47.808;12.482;2022-10-17T06:39:39;13.70;99.90
34646;DHT22;20857;47.808;12.482;2022-10-17T06:42:05;13.80;99.90
34646;DHT22;20857;47.808;12.482;2022-10-17T06:44:30;13.70;99.90
34646;DHT22;20857;47.808;12.482;2022-10-17T06:47:00;13.80;99.90
34646;DHT22;20857;47.808;12.482;2022-10-17T06:49:26;13.70;99.90
34646;DHT22;20857;47.808;12.482;2022-10-17T06:51:52;13.60;99.90
34646;DHT22;20857;47.808;12.482;2022-10-17T06:54:18;13.60;99.90
34646;DHT22;20857;47.808;12.482;2022-10-17T06:56:44;13.60;99.90
34646;DHT22;20857;47.808;12.482;2022-10-17T06:59:10;13.50;99.90
34646;DHT22;20857;47.808;12.482;2022-10-17T07:01:35;13.50;99.90
34646;DHT22;20857;47.808;12.482;2022-10-17T07:04:01;13.50;99.90
34646;DHT22;20857;47.808;12.482;2022-10-17T07:06:27;13.60;99.90
34646;DHT22;20857;47.808;12.482;2022-10-17T07:08:53;13.60;99.90
34646;DHT22;20857;47.808;12.482;2022-10-17T07:11:21;13.50;99.90
34646;DHT22;20857;47.808;12.482;2022-10-17T07:13:47;13.50;99.90
34646;DHT22;20857;47.808;12.482;2022-10-17T07:16:13;13.50;99.90
34646;DHT22;20857;47.808;12.482;2022-10-17T07:18:40;13.50;99.90
34646;DHT22;20857;47.808;12.482;2022-10-17T07:21:06;13.40;99.90
34646;DHT22;20857;47.808;12.482;2022-10-17T07:23:33;13.40;99.90
34646;DHT22;20857;47.808;12.482;2022-10-17T07:26:03;13.40;99.90
34646;DHT22;20857;47.808;12.482;2022-10-17T07:28:32;13.50;99.90
34646;DHT22;20857;47.808;12.482;2022-10-17T07:31:07;13.50;99.90
34646;DHT22;20857;47.808;12.482;2022-10-17T07:33:33;13.60;99.90
34646;DHT22;20857;47.808;12.482;2022-10-17T07:36:00;13.80;99.90
34646;DHT22;20857;47.808;12.482;2022-10-17T07:38:27;13.90;99.90
34646;DHT22;20857;47.808;12.482;2022-10-17T07:40:57;14.20;99.90
34646;DHT22;20857;47.808;12.482;2022-10-17T07:43:23;14.40;99.90
34646;DHT22;20857;47.808;12.482;2022-10-17T07:45:50;14.40;99.90
34646;DHT22;20857;47.808;12.482;2022-10-17T07:48:15;14.50;99.90
34646;DHT22;20857;47.808;12.482;2022-10-17T07:50:41;14.70;99.90
34646;DHT22;20857;47.808;12.482;2022-10-17T07:53:07;14.70;99.90
34646;DHT22;20857;47.808;12.482;2022-10-17T07:55:32;14.70;99.90
34646;DHT22;20857;47.808;12.482;2022-10-17T07:57:58;14.70;99.90
34646;DHT22;20857;47.808;12.482;2022-10-17T08:00:25;14.70;99.90
34646;DHT22;20857;47.808;12.482;2022-10-17T08:02:51;14.80;99.90
34646;DHT22;20857;47.808;12.482;2022-10-17T08:05:16;14.80;99.90
34646;DHT22;20857;47.808;12.482;2022-10-17T08:07:42;14.90;99.90
34646;DHT22;20857;47.808;12.482;2022-10-17T08:10:09;14.90;99.90
34646;DHT22;20857;47.808;12.482;2022-10-17T08:12:35;14.90;99.90
34646;DHT22;20857;47.808;12.482;2022-10-17T08:15:01;14.90;99.90
34646;DHT22;20857;47.808;12.482;2022-10-17T08:17:27;15.00;99.90
34646;DHT22;20857;47.808;12.482;2022-10-17T08:19:53;15.10;99.90
34646;DHT22;20857;47.808;12.482;2022-10-17T08:22:18;15.10;99.90
34646;DHT22;20857;47.808;12.482;2022-10-17T08:24:44;15.10;99.90
34646;DHT22;20857;47.808;12.482;2022-10-17T08:27:11;15.20;99.90
34646;DHT22;20857;47.808;12.482;2022-10-17T08:29:38;15.20;99.90
34646;DHT22;20857;47.808;12.482;2022-10-17T08:32:04;15.30;99.90
34646;DHT22;20857;47.808;12.482;2022-10-17T08:34:30;15.40;99.90
34646;DHT22;20857;47.808;12.482;2022-10-17T08:36:56;15.30;99.90
34646;DHT22;20857;47.808;12.482;2022-10-17T08:39:22;15.50;99.90
34646;DHT22;20857;47.808;12.482;2022-10-17T08:44:48;15.60;99.90
34646;DHT22;20857;47.808;12.482;2022-10-17T08:47:39;15.70;99.90
34646;DHT22;20857;47.808;12.482;2022-10-17T08:50:10;15.90;99.90
34646;DHT22;20857;47.808;12.482;2022-10-17T08:55:49;16.20;99.90
34646;DHT22;20857;47.808;12.482;2022-10-17T08:58:25;16.30;99.90
34646;DHT22;20857;47.808;12.482;2022-10-17T09:06:20;16.60;99.90
34646;DHT22;20857;47.808;12.482;2022-10-17T09:14:53;17.00;99.90
34646;DHT22;20857;47.808;12.482;2022-10-17T09:17:35;17.10;99.90
34646;DHT22;20857;47.808;12.482;2022-10-17T09:20:08;17.10;99.90
34646;DHT22;20857;47.808;12.482;2022-10-17T09:25:18;17.20;99.90
34646;DHT22;20857;47.808;12.482;2022-10-17T09:27:53;17.20;99.90
34646;DHT22;20857;47.808;12.482;2022-10-17T09:30:42;17.20;99.90
34646;DHT22;20857;47.808;12.482;2022-10-17T09:33:10;17.20;99.90
34646;DHT22;20857;47.808;12.482;2022-10-17T09:35:37;17.30;99.90
34646;DHT22;20857;47.808;12.482;2022-10-17T09:38:03;17.50;99.90
34646;DHT22;20857;47.808;12.482;2022-10-17T09:40:34;17.60;99.90
34646;DHT22;20857;47.808;12.482;2022-10-17T09:43:02;17.70;99.90
34646;DHT22;20857;47.808;12.482;2022-10-17T09:45:32;17.80;99.90
34646;DHT22;20857;47.808;12.482;2022-10-17T09:50:38;18.00;99.90
34646;DHT22;20857;47.808;12.482;2022-10-17T09:53:17;17.90;99.90
34646;DHT22;20857;47.808;12.482;2022-10-17T09:55:50;18.00;99.90
34646;DHT22;20857;47.808;12.482;2022-10-17T09:58:18;18.10;99.90
34646;DHT22;20857;47.808;12.482;2022-10-17T10:00:46;18.20;99.90
34646;DHT22;20857;47.808;12.482;2022-10-17T10:03:23;18.30;99.90
34646;DHT22;20857;47.808;12.482;2022-10-17T10:06:16;18.30;99.90
34646;DHT22;20857;47.808;12.482;2022-10-17T10:08:53;18.50;99.90
34646;DHT22;20857;47.808;12.482;2022-10-17T10:11:24;18.60;99.90
34646;DHT22;20857;47.808;12.482;2022-10-17T10:13:51;18.80;99.90
34646;DHT22;20857;47.808;12.482;2022-10-17T10:16:31;18.90;99.90
34646;DHT22;20857;47.808;12.482;2022-10-17T10:18:57;18.90;99.90
34646;DHT22;20857;47.808;12.482;2022-10-17T10:21:25;18.90;99.90
34646;DHT22;20857;47.808;12.482;2022-10-17T10:26:39;18.80;99.90
34646;DHT22;20857;47.808;12.482;2022-10-17T10:29:47;18.70;99.90
34646;DHT22;20857;47.808;12.482;2022-10-17T10:32:25;18.80;99.90
34646;DHT22;20857;47.808;12.482;2022-10-17T10:37:44;18.70;99.90
34646;DHT22;20857;47.808;12.482;2022-10-17T10:40:19;18.70;99.90
34646;DHT22;20857;47.808;12.482;2022-10-17T10:42:50;18.90;99.90
34646;DHT22;20857;47.808;12.482;2022-10-17T10:45:21;18.90;99.90
34646;DHT22;20857;47.808;12.482;2022-10-17T10:48:00;19.00;99.90
34646;DHT22;20857;47.808;12.482;2022-10-17T10:50:42;19.10;99.90
34646;DHT22;20857;47.808;12.482;2022-10-17T10:53:31;19.10;99.90
34646;DHT22;20857;47.808;12.482;2022-10-17T11:01:25;19.40;99.90
34646;DHT22;20857;47.808;12.482;2022-10-17T11:04:27;19.60;99.90
34646;DHT22;20857;47.808;12.482;2022-10-17T11:06:53;19.70;99.90
34646;DHT22;20857;47.808;12.482;2022-10-17T11:09:50;19.70;99.90
34646;DHT22;20857;47.808;12.482;2022-10-17T11:15:33;19.80;99.90
34646;DHT22;20857;47.808;12.482;2022-10-17T11:18:07;19.80;99.90
34646;DHT22;20857;47.808;12.482;2022-10-17T11:23:39;19.90;99.90
34646;DHT22;20857;47.808;12.482;2022-10-17T11:26:10;19.90;99.90
34646;DHT22;20857;47.808;12.482;2022-10-17T11:28:37;19.90;99.90
34646;DHT22;20857;47.808;12.482;2022-10-17T11:31:08;19.90;99.90
34646;DHT22;20857;47.808;12.482;2022-10-17T11:34:00;19.90;99.90
34646;DHT22;20857;47.808;12.482;2022-10-17T11:36:30;20.10;99.90
34646;DHT22;20857;47.808;12.482;2022-10-17T11:39:06;20.10;99.90
34646;DHT22;20857;47.808;12.482;2022-10-17T11:41:48;20.20;99.90
34646;DHT22;20857;47.808;12.482;2022-10-17T11:44:36;20.10;99.90
34646;DHT22;20857;47.808;12.482;2022-10-17T11:49:53;20.20;99.90
34646;DHT22;20857;47.808;12.482;2022-10-17T11:52:42;20.30;99.90
34646;DHT22;20857;47.808;12.482;2022-10-17T11:55:23;20.20;99.90
34646;DHT22;20857;47.808;12.482;2022-10-17T12:00:46;20.30;99.90
34646;DHT22;20857;47.808;12.482;2022-10-17T12:03:45;20.30;99.90
34646;DHT22;20857;47.808;12.482;2022-10-17T12:09:42;20.40;99.90
34646;DHT22;20857;47.808;12.482;2022-10-17T12:12:29;20.40;99.90
34646;DHT22;20857;47.808;12.482;2022-10-17T12:20:28;20.40;99.90
34646;DHT22;20857;47.808;12.482;2022-10-17T12:23:19;20.40;99.90
34646;DHT22;20857;47.808;12.482;2022-10-17T12:25:52;20.40;99.90
34646;DHT22;20857;47.808;12.482;2022-10-17T12:49:35;20.70;99.90
34646;DHT22;20857;47.808;12.482;2022-10-17T12:57:41;20.40;99.90
34646;DHT22;20857;47.808;12.482;2022-10-17T13:05:35;20.40;99.90
34646;DHT22;20857;47.808;12.482;2022-10-17T13:08:04;20.50;99.90
34646;DHT22;20857;47.808;12.482;2022-10-17T13:10:33;20.50;99.90
34646;DHT22;20857;47.808;12.482;2022-10-17T13:13:05;20.50;99.90
34646;DHT22;20857;47.808;12.482;2022-10-17T13:15:34;20.50;99.90
34646;DHT22;20857;47.808;12.482;2022-10-17T13:18:01;20.50;99.90
34646;DHT22;20857;47.808;12.482;2022-10-17T13:20:28;20.50;99.90
34646;DHT22;20857;47.808;12.482;2022-10-17T13:22:56;20.50;99.90
34646;DHT22;20857;47.808;12.482;2022-10-17T13:25:23;20.50;99.90
34646;DHT22;20857;47.808;12.482;2022-10-17T13:27:49;20.40;99.90
34646;DHT22;20857;47.808;12.482;2022-10-17T13:30:34;20.40;99.90
34646;DHT22;20857;47.808;12.482;2022-10-17T13:33:01;20.50;99.90
34646;DHT22;20857;47.808;12.482;2022-10-17T13:35:30;20.60;99.90
34646;DHT22;20857;47.808;12.482;2022-10-17T13:37:56;20.60;99.90
34646;DHT22;20857;47.808;12.482;2022-10-17T13:40:25;20.60;99.90
34646;DHT22;20857;47.808;12.482;2022-10-17T13:42:53;20.60;99.90
34646;DHT22;20857;47.808;12.482;2022-10-17T13:45:31;20.60;99.90
34646;DHT22;20857;47.808;12.482;2022-10-17T13:48:03;20.60;99.90
34646;DHT22;20857;47.808;12.482;2022-10-17T13:50:36;20.50;99.90
34646;DHT22;20857;47.808;12.482;2022-10-17T13:58:40;21.10;99.90
34646;DHT22;20857;47.808;12.482;2022-10-17T14:01:10;21.20;99.90
34646;DHT22;20857;47.808;12.482;2022-10-17T14:03:36;21.20;99.90
34646;DHT22;20857;47.808;12.482;2022-10-17T14:06:12;21.10;99.90
34646;DHT22;20857;47.808;12.482;2022-10-17T14:08:53;21.00;99.90
34646;DHT22;20857;47.808;12.482;2022-10-17T14:11:36;21.00;99.90
34646;DHT22;20857;47.808;12.482;2022-10-17T14:14:05;20.90;99.90
34646;DHT22;20857;47.808;12.482;2022-10-17T14:16:40;20.80;99.90
34646;DHT22;20857;47.808;12.482;2022-10-17T14:19:17;20.70;99.90
34646;DHT22;20857;47.808;12.482;2022-10-17T14:21:47;20.60;99.90
34646;DHT22;20857;47.808;12.482;2022-10-17T14:24:15;20.60;99.90
34646;DHT22;20857;47.808;12.482;2022-10-17T14:29:23;20.20;99.90
34646;DHT22;20857;47.808;12.482;2022-10-17T14:31:49;20.10;99.90
34646;DHT22;20857;47.808;12.482;2022-10-17T14:34:26;20.00;99.90
34646;DHT22;20857;47.808;12.482;2022-10-17T14:36:53;20.00;99.90
34646;DHT22;20857;47.808;12.482;2022-10-17T14:39:22;20.10;99.90
34646;DHT22;20857;47.808;12.482;2022-10-17T14:41:49;20.20;99.90
34646;DHT22;20857;47.808;12.482;2022-10-17T14:46:45;20.10;99.90
34646;DHT22;20857;47.808;12.482;2022-10-17T14:49:18;20.00;99.90
34646;DHT22;20857;47.808;12.482;2022-10-17T14:54:35;19.90;99.90
34646;DHT22;20857;47.808;12.482;2022-10-17T14:57:12;20.00;99.90
34646;DHT22;20857;47.808;12.482;2022-10-17T14:59:39;20.00;99.90
34646;DHT22;20857;47.808;12.482;2022-10-17T15:02:04;19.90;99.90
34646;DHT22;20857;47.808;12.482;2022-10-17T15:04:30;19.80;99.90
34646;DHT22;20857;47.808;12.482;2022-10-17T15:06:55;19.80;99.90
34646;DHT22;20857;47.808;12.482;2022-10-17T15:09:21;19.80;99.90
34646;DHT22;20857;47.808;12.482;2022-10-17T15:11:48;19.70;99.90
34646;DHT22;20857;47.808;12.482;2022-10-17T15:14:13;19.60;99.90
34646;DHT22;20857;47.808;12.482;2022-10-17T15:16:39;19.60;99.90
34646;DHT22;20857;47.808;12.482;2022-10-17T15:19:04;19.50;99.90
34646;DHT22;20857;47.808;12.482;2022-10-17T15:21:30;19.50;99.90
34646;DHT22;20857;47.808;12.482;2022-10-17T15:23:56;19.50;99.90
34646;DHT22;20857;47.808;12.482;2022-10-17T15:26:28;19.60;99.90
34646;DHT22;20857;47.808;12.482;2022-10-17T15:28:54;19.50;99.90
34646;DHT22;20857;47.808;12.482;2022-10-17T15:31:22;19.40;99.90
34646;DHT22;20857;47.808;12.482;2022-10-17T15:33:49;19.20;99.90
34646;DHT22;20857;47.808;12.482;2022-10-17T15:38:43;18.80;99.90
34646;DHT22;20857;47.808;12.482;2022-10-17T15:41:10;18.50;99.90
34646;DHT22;20857;47.808;12.482;2022-10-17T15:43:35;18.20;99.90
34646;DHT22;20857;47.808;12.482;2022-10-17T15:46:01;18.00;99.90
34646;DHT22;20857;47.808;12.482;2022-10-17T15:48:28;17.80;99.90
34646;DHT22;20857;47.808;12.482;2022-10-17T15:50:55;17.50;99.90
34646;DHT22;20857;47.808;12.482;2022-10-17T15:53:21;17.30;99.90
34646;DHT22;20857;47.808;12.482;2022-10-17T15:55:47;17.20;99.90
34646;DHT22;20857;47.808;12.482;2022-10-17T15:58:16;17.00;99.90
34646;DHT22;20857;47.808;12.482;2022-10-17T16:00:43;16.90;99.90
34646;DHT22;20857;47.808;12.482;2022-10-17T16:03:09;16.70;99.90
34646;DHT22;20857;47.808;12.482;2022-10-17T16:05:35;16.50;99.90
34646;DHT22;20857;47.808;12.482;2022-10-17T16:08:01;16.40;99.90
34646;DHT22;20857;47.808;12.482;2022-10-17T16:10:26;16.40;99.90
34646;DHT22;20857;47.808;12.482;2022-10-17T16:12:53;16.30;99.90
34646;DHT22;20857;47.808;12.482;2022-10-17T16:17:50;15.90;99.90
34646;DHT22;20857;47.808;12.482;2022-10-17T16:20:16;15.80;99.90
34646;DHT22;20857;47.808;12.482;2022-10-17T16:22:43;15.60;99.90
34646;DHT22;20857;47.808;12.482;2022-10-17T16:25:22;15.50;99.90
34646;DHT22;20857;47.808;12.482;2022-10-17T16:27:52;15.40;99.90
34646;DHT22;20857;47.808;12.482;2022-10-17T16:30:18;15.20;99.90
34646;DHT22;20857;47.808;12.482;2022-10-17T16:32:45;15.00;99.90
34646;DHT22;20857;47.808;12.482;2022-10-17T16:35:20;14.90;99.90
34646;DHT22;20857;47.808;12.482;2022-10-17T16:37:46;14.80;99.90
34646;DHT22;20857;47.808;12.482;2022-10-17T16:40:12;14.70;99.90
34646;DHT22;20857;47.808;12.482;2022-10-17T16:42:38;14.60;99.90
34646;DHT22;20857;47.808;12.482;2022-10-17T16:45:04;14.60;99.90
34646;DHT22;20857;47.808;12.482;2022-10-17T16:47:30;14.50;99.90
34646;DHT22;20857;47.808;12.482;2022-10-17T16:49:56;14.50;99.90
34646;DHT22;20857;47.808;12.482;2022-10-17T16:52:21;14.40;99.90
34646;DHT22;20857;47.808;12.482;2022-10-17T16:54:47;14.40;99.90
34646;DHT22;20857;47.808;12.482;2022-10-17T16:57:13;14.40;99.90
34646;DHT22;20857;47.808;12.482;2022-10-17T16:59:38;14.40;99.90
34646;DHT22;20857;47.808;12.482;2022-10-17T17:02:04;14.30;99.90
34646;DHT22;20857;47.808;12.482;2022-10-17T17:04:30;14.20;99.90
34646;DHT22;20857;47.808;12.482;2022-10-17T17:06:56;14.20;99.90
34646;DHT22;20857;47.808;12.482;2022-10-17T17:09:21;14.10;99.90
34646;DHT22;20857;47.808;12.482;2022-10-17T17:11:47;14.00;99.90
34646;DHT22;20857;47.808;12.482;2022-10-17T17:14:12;13.90;99.90
34646;DHT22;20857;47.808;12.482;2022-10-17T17:16:38;13.90;99.90
34646;DHT22;20857;47.808;12.482;2022-10-17T17:19:10;13.70;99.90
34646;DHT22;20857;47.808;12.482;2022-10-17T17:21:36;13.70;99.90
34646;DHT22;20857;47.808;12.482;2022-10-17T17:24:02;13.60;99.90
34646;DHT22;20857;47.808;12.482;2022-10-17T17:26:30;13.60;99.90
34646;DHT22;20857;47.808;12.482;2022-10-17T17:28:57;13.50;99.90
34646;DHT22;20857;47.808;12.482;2022-10-17T17:31:26;13.50;99.90
34646;DHT22;20857;47.808;12.482;2022-10-17T17:33:52;13.30;99.90
34646;DHT22;20857;47.808;12.482;2022-10-17T17:36:24;13.40;99.90
34646;DHT22;20857;47.808;12.482;2022-10-17T17:38:53;13.40;99.90
34646;DHT22;20857;47.808;12.482;2022-10-17T17:41:20;13.30;99.90
34646;DHT22;20857;47.808;12.482;2022-10-17T17:43:46;13.30;99.90
34646;DHT22;20857;47.808;12.482;2022-10-17T17:46:14;13.20;99.90